Chance, Maryland
Current Conditions -  °F | °C
As of 3:54 PM on Thursday 23 Oct 2014 (Local Time) from KSBY Reporting Station
Overcast Overcast  
Wind Chill: 62°   Ceiling: 3500
Heat Index: 62°   Visibility: 10mi
Dew Point: 46°   Wind: 14mph
Humidity: 56%   Direction: 320°NW
Pressure: 29.79"   Gusts: 22mph
Location:  38.17°N, 75.94°W
Report Text: KSBY 231954Z 32012G19KT 10SM OVC035 17/08 A2979 RMK AO2 SLP089 T01670078
Loading
Personal Weather Stations






























Interactive Weather Map
Tropical Storm Tracking
New forecast layout! Learn more

10-Day Weather Forecast

Advertisements
Track Severe Weather on mobile